createdAt,value
2022-10-24T00:02:22.486Z,1.80
2022-10-24T00:04:50.077Z,1.88
2022-10-24T00:07:18.120Z,1.70
2022-10-24T00:09:48.463Z,2.13
2022-10-24T00:12:16.137Z,2.00
2022-10-24T00:14:43.759Z,1.67
2022-10-24T00:17:11.626Z,1.63
2022-10-24T00:19:38.995Z,2.03
2022-10-24T00:22:06.220Z,1.70
2022-10-24T00:24:36.058Z,1.60
2022-10-24T00:27:03.389Z,1.73
2022-10-24T00:29:33.628Z,1.95
2022-10-24T00:32:00.787Z,1.70
2022-10-24T00:34:28.472Z,1.77
2022-10-24T00:36:55.851Z,2.17
2022-10-24T00:39:24.111Z,1.77
2022-10-24T00:41:58.421Z,1.75
2022-10-24T00:44:37.499Z,1.90
2022-10-24T00:47:14.620Z,2.15
2022-10-24T00:50:01.133Z,1.70
2022-10-24T00:52:36.736Z,1.85
2022-10-24T00:55:06.741Z,1.58
2022-10-24T00:57:36.073Z,1.60
2022-10-24T01:00:09.836Z,1.52
2022-10-24T01:02:38.193Z,1.70
2022-10-24T01:05:09.433Z,1.55
2022-10-24T01:08:00.995Z,2.22
2022-10-24T01:10:47.304Z,1.70
2022-10-24T01:13:36.855Z,1.95
2022-10-24T01:16:27.869Z,2.00
2022-10-24T01:19:14.757Z,1.50
2022-10-24T01:21:55.905Z,2.08
2022-10-24T01:24:23.635Z,2.00
2022-10-24T01:30:14.591Z,1.98
2022-10-24T01:32:46.153Z,1.90
2022-10-24T01:36:05.848Z,1.90
2022-10-24T01:38:51.579Z,1.92
2022-10-24T01:41:24.349Z,2.20
2022-10-24T01:43:57.027Z,1.73
2022-10-24T01:46:32.699Z,2.10
2022-10-24T01:49:13.784Z,2.10
2022-10-24T01:51:42.312Z,1.88
2022-10-24T01:54:10.830Z,1.77
2022-10-24T01:56:42.176Z,2.00
2022-10-24T01:59:30.746Z,1.90
2022-10-24T02:02:13.475Z,2.10
2022-10-24T02:04:51.014Z,2.63
2022-10-24T02:07:20.569Z,1.90
2022-10-24T02:09:54.430Z,2.00
2022-10-24T02:12:26.250Z,2.50
2022-10-24T02:14:59.979Z,2.00
2022-10-24T02:19:57.287Z,2.20
2022-10-24T02:22:48.283Z,1.90
2022-10-24T02:25:24.549Z,1.70
2022-10-24T02:28:23.271Z,1.90
2022-10-24T02:31:11.676Z,1.85
2022-10-24T02:33:41.680Z,1.92
2022-10-24T02:36:12.621Z,1.95
2022-10-24T02:38:44.865Z,1.63
2022-10-24T02:41:17.801Z,2.10
2022-10-24T02:43:47.254Z,2.33
2022-10-24T02:46:19.991Z,2.08
2022-10-24T02:48:56.171Z,2.30
2022-10-24T02:51:27.914Z,1.95
2022-10-24T02:53:56.127Z,2.10
2022-10-24T02:56:24.127Z,2.17
2022-10-24T02:58:51.725Z,2.00
2022-10-24T03:01:19.664Z,1.88
2022-10-24T03:03:51.433Z,2.15
2022-10-24T03:06:19.374Z,1.95
2022-10-24T03:08:46.792Z,2.30
2022-10-24T03:11:14.470Z,2.00
2022-10-24T03:13:41.886Z,2.40
2022-10-24T03:16:11.727Z,1.70
2022-10-24T03:18:41.383Z,1.90
2022-10-24T03:21:08.987Z,1.98
2022-10-24T03:23:36.541Z,2.00
2022-10-24T03:26:04.273Z,1.83
2022-10-24T03:28:32.158Z,2.55
2022-10-24T03:31:00.336Z,1.88
2022-10-24T03:33:50.514Z,2.00
2022-10-24T03:36:18.727Z,2.10
2022-10-24T03:38:50.040Z,2.00
2022-10-24T03:41:17.539Z,2.38
2022-10-24T03:43:45.074Z,1.85
2022-10-24T03:46:12.463Z,2.40
2022-10-24T03:48:43.265Z,2.20
2022-10-24T03:51:11.554Z,2.20
2022-10-24T03:53:39.810Z,2.15
2022-10-24T03:56:08.260Z,1.98
2022-10-24T03:58:35.859Z,2.30
2022-10-24T04:01:03.743Z,2.10
2022-10-24T04:03:31.362Z,2.13
2022-10-24T04:05:58.865Z,2.10
2022-10-24T04:08:29.563Z,2.35
2022-10-24T04:10:57.121Z,2.05
2022-10-24T04:13:24.612Z,2.03
2022-10-24T04:15:52.076Z,2.28
2022-10-24T04:18:19.642Z,2.10
2022-10-24T04:20:47.512Z,2.15
2022-10-24T04:23:14.986Z,2.38
2022-10-24T04:25:43.531Z,2.63
2022-10-24T04:28:11.295Z,2.40
2022-10-24T04:30:39.210Z,2.20
2022-10-24T04:33:07.183Z,2.58
2022-10-24T04:35:37.827Z,2.40
2022-10-24T04:38:08.436Z,2.20
2022-10-24T04:40:38.306Z,2.90
2022-10-24T04:43:05.927Z,2.42
2022-10-24T04:45:34.877Z,2.60
2022-10-24T04:48:02.551Z,2.60
2022-10-24T04:50:30.440Z,2.30
2022-10-24T04:52:58.233Z,3.13
2022-10-24T04:55:28.493Z,2.63
2022-10-24T04:57:56.016Z,2.30
2022-10-24T05:00:23.383Z,2.45
2022-10-24T05:02:54.188Z,2.42
2022-10-24T05:05:24.474Z,2.22
2022-10-24T05:07:52.172Z,2.85
2022-10-24T05:10:22.294Z,2.60
2022-10-24T05:12:53.124Z,2.50
2022-10-24T05:15:26.067Z,2.50
2022-10-24T05:17:53.816Z,2.70
2022-10-24T05:20:21.390Z,2.63
2022-10-24T05:22:49.181Z,2.40
2022-10-24T05:25:17.002Z,2.50
2022-10-24T05:27:45.137Z,2.50
2022-10-24T05:30:15.735Z,2.70
2022-10-24T05:32:47.013Z,2.35
2022-10-24T05:35:17.031Z,2.55
2022-10-24T05:37:44.951Z,2.50
2022-10-24T05:40:13.602Z,2.25
2022-10-24T05:42:44.276Z,2.50
2022-10-24T05:45:12.258Z,5.68
2022-10-24T05:47:39.695Z,4.90
2022-10-24T05:50:08.561Z,3.70
2022-10-24T05:52:36.700Z,2.63
2022-10-24T05:55:08.081Z,2.50
2022-10-24T05:57:37.660Z,2.63
2022-10-24T06:00:23.713Z,2.65
2022-10-24T06:02:55.486Z,2.60
2022-10-24T06:05:25.393Z,2.47
2022-10-24T06:08:03.984Z,2.70
2022-10-24T06:10:42.583Z,2.47
2022-10-24T06:13:19.124Z,2.50
2022-10-24T06:15:52.546Z,2.90
2022-10-24T06:18:23.088Z,2.53
2022-10-24T06:20:54.151Z,2.67
2022-10-24T06:23:33.279Z,2.20
2022-10-24T06:26:10.582Z,2.90
2022-10-24T06:28:50.203Z,3.08
2022-10-24T06:31:21.820Z,2.60
2022-10-24T06:36:29.292Z,2.85
2022-10-24T06:39:03.354Z,3.45
2022-10-24T06:41:35.438Z,3.05
2022-10-24T06:44:04.997Z,2.70
2022-10-24T06:46:39.529Z,3.58
2022-10-24T06:49:12.358Z,2.50
2022-10-24T06:51:44.810Z,3.42
2022-10-24T06:54:15.271Z,2.92
2022-10-24T06:56:44.301Z,2.60
2022-10-24T06:59:14.659Z,2.30
2022-10-24T07:01:51.018Z,3.40
2022-10-24T07:04:22.556Z,3.20
2022-10-24T07:06:54.715Z,2.55
2022-10-24T07:09:31.007Z,2.90
2022-10-24T07:11:59.543Z,3.08
2022-10-24T07:14:27.243Z,3.40
2022-10-24T07:16:56.517Z,2.75
2022-10-24T07:19:26.786Z,2.80
2022-10-24T07:22:03.968Z,2.65
2022-10-24T07:24:34.365Z,2.33
2022-10-24T07:27:08.003Z,2.88
2022-10-24T07:29:45.790Z,2.65
2022-10-24T07:32:18.478Z,3.28
2022-10-24T07:34:52.955Z,2.80
2022-10-24T07:39:58.655Z,2.50
2022-10-24T07:42:31.123Z,2.75
2022-10-24T07:45:06.440Z,2.53
2022-10-24T07:47:37.977Z,2.58
2022-10-24T07:50:08.758Z,2.80
2022-10-24T07:52:36.334Z,3.83
2022-10-24T07:55:07.782Z,3.42
2022-10-24T07:57:35.436Z,2.75
2022-10-24T08:00:09.530Z,2.60
2022-10-24T08:02:42.250Z,3.15
2022-10-24T08:05:17.133Z,2.78
2022-10-24T08:07:56.328Z,2.83
2022-10-24T08:10:33.524Z,2.58
2022-10-24T08:13:01.002Z,2.75
2022-10-24T08:15:28.519Z,2.90
2022-10-24T08:17:59.167Z,2.90
2022-10-24T08:20:31.733Z,3.20
2022-10-24T08:23:10.276Z,2.85
2022-10-24T08:25:42.338Z,2.40
2022-10-24T08:28:11.716Z,3.00
2022-10-24T08:30:43.475Z,2.58
2022-10-24T08:33:13.751Z,2.40
2022-10-24T08:35:44.088Z,2.55
2022-10-24T08:38:11.569Z,2.78
2022-10-24T08:40:39.901Z,2.55
2022-10-24T08:43:07.402Z,2.10
2022-10-24T08:45:57.115Z,2.47
2022-10-24T08:48:32.538Z,2.58
2022-10-24T08:51:15.028Z,2.28
2022-10-24T08:53:42.334Z,2.10
2022-10-24T08:56:11.995Z,1.95
2022-10-24T08:58:43.255Z,2.60
2022-10-24T09:01:38.547Z,2.03
2022-10-24T09:04:10.186Z,1.92
2022-10-24T09:06:38.242Z,2.15
2022-10-24T09:09:15.629Z,1.92
2022-10-24T09:12:21.641Z,1.90
2022-10-24T09:14:59.258Z,2.55
2022-10-24T09:17:35.732Z,2.47
2022-10-24T09:20:25.888Z,1.88
2022-10-24T09:22:55.954Z,2.20
2022-10-24T09:25:30.241Z,2.08
2022-10-24T09:28:01.131Z,2.40
2022-10-24T09:30:33.036Z,2.47
2022-10-24T09:33:15.701Z,2.20
2022-10-24T09:35:43.289Z,2.33
2022-10-24T09:38:30.938Z,2.15
2022-10-24T09:41:07.676Z,2.42
2022-10-24T09:43:51.062Z,2.40
2022-10-24T09:46:21.748Z,2.03
2022-10-24T09:49:19.013Z,2.35
2022-10-24T09:52:08.156Z,2.17
2022-10-24T09:54:36.291Z,2.03
2022-10-24T09:59:45.223Z,2.00
2022-10-24T10:02:35.563Z,1.90
2022-10-24T10:05:02.688Z,1.70
2022-10-24T10:07:35.682Z,1.95
2022-10-24T10:10:29.679Z,1.67
2022-10-24T10:13:03.312Z,1.60
2022-10-24T10:15:46.273Z,1.98
2022-10-24T10:18:27.615Z,2.28
2022-10-24T10:20:59.901Z,1.98
2022-10-24T10:23:34.167Z,1.98
2022-10-24T10:26:06.836Z,1.50
2022-10-24T10:28:36.879Z,1.40
2022-10-24T10:31:11.868Z,1.65
2022-10-24T10:34:21.403Z,1.75
2022-10-24T10:37:05.766Z,1.80
2022-10-24T10:39:56.812Z,2.00
2022-10-24T10:42:53.599Z,1.90
2022-10-24T10:45:48.951Z,1.70
2022-10-24T10:48:30.552Z,1.98
2022-10-24T10:51:08.529Z,1.67
2022-10-24T10:53:53.360Z,1.80
2022-10-24T10:56:46.716Z,2.05
2022-10-24T10:59:28.609Z,2.30
2022-10-24T11:02:42.535Z,1.60
2022-10-24T11:05:38.048Z,1.70
2022-10-24T11:08:18.495Z,1.45
2022-10-24T11:11:12.856Z,1.63
2022-10-24T11:13:56.588Z,1.73
2022-10-24T11:16:28.048Z,1.50
2022-10-24T11:19:24.735Z,1.50
2022-10-24T11:21:52.957Z,1.50
2022-10-24T11:24:24.886Z,1.52
2022-10-24T11:27:04.018Z,1.40
2022-10-24T11:29:43.894Z,1.58
2022-10-24T11:32:25.226Z,1.83
2022-10-24T11:35:20.491Z,1.30
2022-10-24T11:37:53.669Z,1.40
2022-10-24T11:40:23.983Z,1.60
2022-10-24T11:43:13.801Z,1.38
2022-10-24T11:45:58.244Z,1.30
2022-10-24T11:51:10.896Z,1.48
2022-10-24T11:53:39.444Z,1.55
2022-10-24T11:56:20.419Z,1.23
2022-10-24T11:59:20.104Z,1.00
2022-10-24T12:02:19.707Z,1.27
2022-10-24T12:05:01.679Z,1.33
2022-10-24T12:08:10.563Z,1.30
2022-10-24T12:11:04.250Z,1.38
2022-10-24T12:14:19.025Z,1.33
2022-10-24T12:17:05.333Z,1.80
2022-10-24T12:19:33.401Z,1.30
2022-10-24T12:22:04.993Z,1.50
2022-10-24T12:24:36.471Z,1.38
2022-10-24T12:27:07.334Z,1.60
2022-10-24T12:29:36.798Z,1.27
2022-10-24T12:32:51.098Z,1.40
2022-10-24T12:35:31.302Z,1.60
2022-10-24T12:37:59.723Z,1.10
2022-10-24T12:40:45.416Z,1.40
2022-10-24T12:43:29.081Z,1.10
2022-10-24T12:46:00.279Z,1.88
2022-10-24T12:48:36.290Z,1.50
2022-10-24T12:51:38.472Z,1.40
2022-10-24T12:54:11.580Z,1.30
2022-10-24T12:56:54.066Z,1.70
2022-10-24T12:59:28.065Z,1.40
2022-10-24T13:02:10.848Z,1.38
2022-10-24T13:05:11.846Z,1.60
2022-10-24T13:08:07.223Z,1.48
2022-10-24T13:11:08.047Z,1.45
2022-10-24T13:13:44.462Z,1.70
2022-10-24T13:16:33.910Z,1.20
2022-10-24T13:19:06.586Z,1.10
2022-10-24T13:21:57.269Z,1.30
2022-10-24T13:24:29.925Z,1.35
2022-10-24T13:26:57.341Z,1.30
2022-10-24T13:29:24.520Z,1.20
2022-10-24T13:31:54.350Z,1.25
2022-10-24T13:34:28.435Z,1.35
2022-10-24T13:37:01.716Z,1.60
2022-10-24T13:39:35.774Z,1.38
2022-10-24T13:42:23.690Z,2.05
2022-10-24T13:44:55.942Z,1.85
2022-10-24T13:47:29.581Z,1.60
2022-10-24T13:50:14.562Z,1.48
2022-10-24T13:52:45.625Z,1.30
2022-10-24T13:55:22.048Z,1.20
2022-10-24T13:58:00.298Z,1.38
2022-10-24T14:00:32.061Z,2.25
2022-10-24T14:03:03.715Z,1.23
2022-10-24T14:05:46.967Z,1.30
2022-10-24T14:08:30.117Z,1.52
2022-10-24T14:10:59.856Z,1.50
2022-10-24T14:13:34.070Z,1.45
2022-10-24T14:16:04.484Z,1.60
2022-10-24T14:18:32.668Z,1.33
2022-10-24T14:21:02.703Z,1.25
2022-10-24T14:23:40.848Z,1.55
2022-10-24T14:26:17.090Z,1.33
2022-10-24T14:28:58.798Z,1.40
2022-10-24T14:31:31.342Z,1.58
2022-10-24T14:33:59.009Z,1.58
2022-10-24T14:36:31.781Z,1.50
2022-10-24T14:39:01.032Z,1.90
2022-10-24T14:41:33.439Z,1.55
2022-10-24T14:44:01.304Z,1.88
2022-10-24T14:46:37.787Z,1.25
2022-10-24T14:49:21.751Z,1.15
2022-10-24T14:54:23.368Z,1.48
2022-10-24T14:56:53.648Z,1.23
2022-10-24T14:59:37.625Z,1.60
2022-10-24T15:02:18.596Z,1.10
2022-10-24T15:04:45.947Z,1.20
2022-10-24T15:07:36.324Z,1.60
2022-10-24T15:10:13.332Z,1.33
2022-10-24T15:12:45.230Z,1.52
2022-10-24T15:15:33.221Z,1.65
2022-10-24T15:18:16.420Z,1.20
2022-10-24T15:20:46.264Z,1.50
2022-10-24T15:23:31.905Z,1.67
2022-10-24T15:26:12.243Z,1.52
2022-10-24T15:28:49.426Z,2.15
2022-10-24T15:31:22.007Z,1.55
2022-10-24T15:33:49.237Z,1.48
2022-10-24T15:36:25.759Z,1.58
2022-10-24T15:38:58.351Z,1.73
2022-10-24T15:41:27.091Z,1.30
2022-10-24T15:43:55.145Z,1.20
2022-10-24T15:46:22.596Z,1.65
2022-10-24T15:48:49.991Z,1.63
2022-10-24T15:51:20.820Z,1.67
2022-10-24T15:53:50.273Z,2.42
2022-10-24T15:56:17.767Z,1.10
2022-10-24T15:58:44.952Z,1.50
2022-10-24T16:01:25.131Z,1.27
2022-10-24T16:03:52.481Z,1.58
2022-10-24T16:06:21.884Z,1.55
2022-10-24T16:08:49.488Z,1.45
2022-10-24T16:11:17.295Z,2.00
2022-10-24T16:13:45.078Z,1.60
2022-10-24T16:16:12.373Z,1.42
2022-10-24T16:18:39.651Z,1.52
2022-10-24T16:21:06.958Z,1.45
2022-10-24T16:23:34.312Z,1.58
2022-10-24T16:26:01.506Z,2.00
2022-10-24T16:28:29.029Z,1.50
2022-10-24T16:30:56.349Z,2.33
2022-10-24T16:33:23.498Z,3.40
2022-10-24T16:35:51.779Z,5.75
2022-10-24T16:38:18.956Z,8.57
2022-10-24T16:40:48.480Z,5.75
2022-10-24T16:43:18.574Z,3.22
2022-10-24T16:45:57.303Z,1.70
2022-10-24T16:48:24.863Z,1.58
2022-10-24T16:50:52.549Z,1.95
2022-10-24T16:53:24.083Z,1.73
2022-10-24T16:55:54.481Z,1.90
2022-10-24T16:58:22.507Z,1.95
2022-10-24T17:00:49.974Z,1.63
2022-10-24T17:03:17.492Z,1.45
2022-10-24T17:08:14.468Z,2.17
2022-10-24T17:10:41.921Z,1.20
2022-10-24T17:13:09.271Z,1.45
2022-10-24T17:15:38.931Z,1.55
2022-10-24T17:18:07.347Z,1.90
2022-10-24T17:20:34.795Z,1.65
2022-10-24T17:23:04.396Z,1.52
2022-10-24T17:25:33.917Z,1.65
2022-10-24T17:28:01.174Z,1.50
2022-10-24T17:30:29.825Z,1.50
2022-10-24T17:32:57.709Z,1.95
2022-10-24T17:35:25.948Z,1.80
2022-10-24T17:38:05.527Z,2.20
2022-10-24T17:40:45.401Z,2.00
2022-10-24T17:43:30.795Z,2.28
2022-10-24T17:45:58.442Z,3.08
2022-10-24T17:48:26.240Z,5.07
2022-10-24T17:50:56.011Z,3.45
2022-10-24T17:53:23.402Z,2.78
2022-10-24T17:55:54.215Z,2.03
2022-10-24T17:58:22.104Z,1.80
2022-10-24T18:00:49.458Z,1.90
2022-10-24T18:03:22.315Z,1.73
2022-10-24T18:05:49.823Z,1.90
2022-10-24T18:08:17.604Z,1.70
2022-10-24T18:10:45.234Z,2.13
2022-10-24T18:13:15.059Z,1.77
2022-10-24T18:15:42.407Z,1.92
2022-10-24T18:18:09.632Z,1.88
2022-10-24T18:20:37.302Z,2.00
2022-10-24T18:23:04.839Z,1.45
2022-10-24T18:25:32.049Z,1.40
2022-10-24T18:27:59.490Z,2.05
2022-10-24T18:30:27.455Z,2.38
2022-10-24T18:32:54.649Z,2.70
2022-10-24T18:35:22.497Z,2.25
2022-10-24T18:40:18.384Z,13.70
2022-10-24T18:42:55.240Z,7.30
2022-10-24T18:45:25.297Z,18.33
2022-10-24T18:47:54.063Z,13.00
2022-10-24T18:50:22.470Z,4.70
2022-10-24T18:53:07.018Z,3.38
2022-10-24T18:55:35.713Z,1.80
2022-10-24T18:58:03.877Z,2.70
2022-10-24T19:00:33.023Z,3.50
2022-10-24T19:03:22.008Z,3.10
2022-10-24T19:06:06.476Z,1.90
2022-10-24T19:11:01.495Z,1.77
2022-10-24T19:13:29.077Z,1.70
2022-10-24T19:16:00.135Z,1.58
2022-10-24T19:18:29.891Z,1.50
2022-10-24T19:20:57.555Z,1.60
2022-10-24T19:23:25.261Z,1.55
2022-10-24T19:25:53.171Z,1.75
2022-10-24T19:28:20.832Z,1.90
2022-10-24T19:30:48.614Z,1.50
2022-10-24T19:33:16.767Z,1.50
2022-10-24T19:35:47.834Z,1.48
2022-10-24T19:38:18.334Z,1.60
2022-10-24T19:40:47.819Z,1.70
2022-10-24T19:43:15.978Z,1.73
2022-10-24T19:45:50.644Z,1.75
2022-10-24T19:48:23.441Z,2.63
2022-10-24T19:50:51.583Z,1.67
2022-10-24T19:53:19.542Z,1.70
2022-10-24T19:55:46.823Z,1.77
2022-10-24T19:58:21.870Z,2.10
2022-10-24T20:00:49.378Z,2.67
2022-10-24T20:03:16.755Z,1.95
2022-10-24T20:05:44.039Z,1.90
2022-10-24T20:08:11.283Z,2.33
2022-10-24T20:10:38.786Z,1.92
2022-10-24T20:13:06.121Z,2.05
2022-10-24T20:15:34.790Z,2.97
2022-10-24T20:18:02.108Z,2.10
2022-10-24T20:20:29.482Z,2.67
2022-10-24T20:22:56.948Z,2.17
2022-10-24T20:25:24.224Z,3.25
2022-10-24T20:27:53.799Z,3.60
2022-10-24T20:30:21.159Z,2.20
2022-10-24T20:32:48.586Z,2.20
2022-10-24T20:35:16.207Z,1.60
2022-10-24T20:37:45.304Z,2.63
2022-10-24T20:40:13.186Z,1.83
2022-10-24T20:42:40.526Z,1.58
2022-10-24T20:45:08.489Z,1.80
2022-10-24T20:47:36.717Z,1.70
2022-10-24T20:50:04.933Z,1.90
2022-10-24T20:52:32.551Z,1.88
2022-10-24T20:55:00.124Z,1.90
2022-10-24T20:57:27.530Z,1.90
2022-10-24T20:59:55.066Z,2.30
2022-10-24T21:02:22.574Z,2.28
2022-10-24T21:04:49.973Z,2.30
2022-10-24T21:07:17.362Z,2.05
2022-10-24T21:09:44.652Z,1.85
2022-10-24T21:12:11.873Z,1.75
2022-10-24T21:14:39.091Z,1.90
2022-10-24T21:17:06.344Z,1.80
2022-10-24T21:19:33.515Z,2.17
2022-10-24T21:22:00.865Z,2.05
2022-10-24T21:24:27.988Z,1.67
2022-10-24T21:26:55.278Z,2.13
2022-10-24T21:29:37.824Z,2.22
2022-10-24T21:32:05.241Z,2.13
2022-10-24T21:34:34.634Z,2.10
2022-10-24T21:37:03.446Z,2.50
2022-10-24T21:39:31.071Z,2.35
2022-10-24T21:41:58.731Z,2.20
2022-10-24T21:44:26.435Z,1.85
2022-10-24T21:46:54.639Z,2.50
2022-10-24T21:49:21.972Z,2.72
2022-10-24T21:51:49.751Z,2.38
2022-10-24T21:54:20.344Z,2.70
2022-10-24T21:56:48.341Z,2.65
2022-10-24T21:59:18.321Z,2.05
2022-10-24T22:01:48.132Z,2.38
2022-10-24T22:04:16.636Z,2.55
2022-10-24T22:06:45.273Z,2.47
2022-10-24T22:09:17.454Z,2.15
2022-10-24T22:11:45.292Z,2.45
2022-10-24T22:14:14.973Z,3.13
2022-10-24T22:16:43.726Z,2.72
2022-10-24T22:19:13.629Z,2.90
2022-10-24T22:21:47.330Z,2.95
2022-10-24T22:24:17.636Z,2.20
2022-10-24T22:26:45.270Z,2.53
2022-10-24T22:29:18.568Z,2.30
2022-10-24T22:31:46.877Z,2.40
2022-10-24T22:34:20.762Z,2.25
2022-10-24T22:39:29.415Z,2.50
2022-10-24T22:41:57.387Z,2.85
2022-10-24T22:44:25.133Z,2.40
2022-10-24T22:47:23.392Z,2.50
2022-10-24T22:50:08.852Z,2.65
2022-10-24T22:52:36.526Z,2.10
2022-10-24T22:55:05.730Z,2.45
2022-10-24T23:12:42.877Z,1.90
2022-10-24T23:15:16.365Z,2.45
2022-10-24T23:17:45.413Z,2.92
2022-10-24T23:20:28.036Z,2.65
2022-10-24T23:23:09.152Z,2.30
2022-10-24T23:25:52.071Z,2.30
2022-10-24T23:28:27.808Z,2.50
2022-10-24T23:30:58.479Z,2.85
2022-10-24T23:33:29.910Z,2.38
2022-10-24T23:35:59.794Z,2.10
2022-10-24T23:38:28.266Z,2.10
2022-10-24T23:40:56.521Z,2.83
2022-10-24T23:43:24.390Z,2.30
2022-10-24T23:46:07.280Z,2.00
2022-10-24T23:48:58.881Z,2.55
2022-10-24T23:51:34.748Z,3.30
2022-10-24T23:54:03.176Z,1.73
2022-10-24T23:56:31.372Z,2.42
2022-10-24T23:58:59.175Z,1.88
